Time;durP1;ratioP1;P1;durP2;ratioP2;P2;SDS_P1;SDS_P2;PMS_P1;PMS_P2;Temp;Humidity;BMP_temperature;BMP_pressure;BME280_temperature;BME280_humidity;BME280_pressure;Samples;Min_cycle;Max_cycle;Signal;HPM_P1;HPM_P2
2022/08/13 00:01:51;;;;;;;14.10;11.20;;;16.50;99.90;;;;;;5094051;28;20531;-74
2022/08/13 00:04:17;;;;;;;12.45;10.23;;;16.40;99.90;;;;;;5097258;28;20386;-75
2022/08/13 00:09:11;;;;;;;13.60;10.20;;;16.30;99.90;;;;;;5097282;28;20028;-75
2022/08/13 00:14:29;;;;;;;13.50;10.02;;;16.20;99.90;;;;;;5097536;28;20114;-75
2022/08/13 00:16:55;;;;;;;14.45;10.05;;;16.20;99.90;;;;;;5097016;28;20039;-75
2022/08/13 00:19:22;;;;;;;15.05;12.07;;;16.20;99.90;;;;;;5096930;28;20024;-75
2022/08/13 00:21:47;;;;;;;15.75;12.27;;;16.10;99.90;;;;;;5097084;28;20039;-75
2022/08/13 00:24:14;;;;;;;13.50;11.38;;;16.10;99.90;;;;;;5095218;28;20021;-74
2022/08/13 00:26:41;;;;;;;12.98;10.57;;;16.10;99.90;;;;;;5095518;28;20036;-75
2022/08/13 00:29:08;;;;;;;17.75;11.75;;;16.10;99.90;;;;;;5095418;28;20027;-75
2022/08/13 00:31:34;;;;;;;13.93;11.55;;;16.10;99.90;;;;;;5096733;28;20073;-76
2022/08/13 00:34:00;;;;;;;14.05;11.32;;;16.10;99.90;;;;;;5096523;28;20089;-74
2022/08/13 00:36:30;;;;;;;21.60;17.27;;;16.00;99.90;;;;;;5096496;28;20043;-74
2022/08/13 00:38:56;;;;;;;15.35;12.32;;;16.00;99.90;;;;;;5096927;28;20016;-75
2022/08/13 00:41:39;;;;;;;11.85;10.02;;;15.90;99.90;;;;;;5096553;28;20024;-76
2022/08/13 00:44:08;;;;;;;11.68;9.57;;;15.90;99.90;;;;;;5095289;28;20389;-75
2022/08/13 00:46:35;;;;;;;12.00;9.77;;;15.80;99.90;;;;;;5096436;28;20099;-75
2022/08/13 00:49:03;;;;;;;15.52;10.98;;;15.90;99.90;;;;;;5096095;28;20054;-74
2022/08/13 00:51:30;;;;;;;16.20;11.70;;;15.80;99.90;;;;;;5096412;28;20024;-74
2022/08/13 00:53:58;;;;;;;12.60;10.35;;;15.80;99.90;;;;;;5095064;28;20032;-75
2022/08/13 00:56:24;;;;;;;14.88;11.35;;;15.90;99.90;;;;;;5095982;28;20029;-74
2022/08/13 00:58:51;;;;;;;15.07;12.38;;;15.90;99.90;;;;;;5096082;28;20024;-74
2022/08/13 01:01:25;;;;;;;18.85;13.80;;;16.00;99.90;;;;;;5096133;28;20027;-75
2022/08/13 01:03:51;;;;;;;16.88;13.10;;;16.10;99.90;;;;;;5095986;28;20028;-74
2022/08/13 01:06:20;;;;;;;19.25;14.10;;;16.20;99.90;;;;;;5095967;28;20028;-75
2022/08/13 01:08:49;;;;;;;20.75;15.38;;;16.20;99.90;;;;;;5095332;28;20060;-74
2022/08/13 01:11:15;;;;;;;23.75;15.20;;;16.30;99.90;;;;;;5095926;28;20058;-75
2022/08/13 01:13:43;;;;;;;20.33;15.13;;;16.30;99.90;;;;;;5094247;28;20051;-74
2022/08/13 01:16:13;;;;;;;22.05;15.25;;;16.40;99.90;;;;;;5094535;28;20019;-74
2022/08/13 01:18:50;;;;;;;18.88;14.50;;;16.40;99.90;;;;;;5095810;28;20023;-74
2022/08/13 01:21:18;;;;;;;18.80;14.23;;;16.50;99.90;;;;;;5094454;28;20024;-74
2022/08/13 01:23:49;;;;;;;18.50;13.38;;;16.50;99.90;;;;;;5095638;28;20481;-75
2022/08/13 01:26:22;;;;;;;18.42;13.23;;;16.60;99.90;;;;;;5095782;28;20044;-75
2022/08/13 01:28:50;;;;;;;19.73;14.82;;;16.60;99.90;;;;;;5094316;28;20069;-74
2022/08/13 01:31:18;;;;;;;20.63;14.88;;;16.50;99.90;;;;;;5095658;28;20016;-74
2022/08/13 01:33:48;;;;;;;20.35;14.23;;;16.50;99.90;;;;;;5094253;28;20031;-75
2022/08/13 01:36:14;;;;;;;23.17;15.32;;;16.50;99.90;;;;;;5095276;28;20107;-75
2022/08/13 01:38:41;;;;;;;21.00;15.60;;;16.50;99.90;;;;;;5094137;28;20042;-74
2022/08/13 01:41:10;;;;;;;26.80;15.30;;;16.50;99.90;;;;;;5094173;28;20039;-75
2022/08/13 01:43:41;;;;;;;23.42;15.45;;;16.50;99.90;;;;;;5095253;28;20069;-76
2022/08/13 01:46:09;;;;;;;24.70;16.25;;;16.40;99.90;;;;;;5095211;28;20028;-75
2022/08/13 01:51:23;;;;;;;20.98;14.07;;;16.40;99.90;;;;;;5095188;28;20038;-75
2022/08/13 01:53:52;;;;;;;20.50;14.75;;;16.40;99.90;;;;;;5094653;28;20382;-75
2022/08/13 01:56:21;;;;;;;22.60;14.35;;;16.40;99.90;;;;;;5094949;28;20034;-74
2022/08/13 01:58:50;;;;;;;24.50;15.05;;;16.30;99.90;;;;;;5094960;28;20035;-74
2022/08/13 02:01:15;;;;;;;23.70;14.95;;;16.30;99.90;;;;;;5094845;28;20024;-74
2022/08/13 02:03:44;;;;;;;21.95;15.32;;;16.30;99.90;;;;;;5093719;28;20028;-74
2022/08/13 02:06:11;;;;;;;20.30;14.75;;;16.30;99.90;;;;;;5094788;28;20019;-75
2022/08/13 02:08:40;;;;;;;21.70;14.40;;;16.30;99.90;;;;;;5093538;28;20507;-74
2022/08/13 02:11:06;;;;;;;19.02;13.70;;;16.30;99.90;;;;;;5093598;28;20043;-74
2022/08/13 02:13:31;;;;;;;18.33;13.10;;;16.30;99.90;;;;;;5094785;28;20025;-74
2022/08/13 02:15:57;;;;;;;24.27;14.65;;;16.30;99.90;;;;;;5093242;28;20024;-75
2022/08/13 02:18:25;;;;;;;19.35;14.35;;;16.40;99.90;;;;;;5093385;28;20102;-74
2022/08/13 02:20:52;;;;;;;18.55;13.90;;;16.40;99.90;;;;;;5093312;28;20039;-75
2022/08/13 02:23:22;;;;;;;20.63;14.68;;;16.30;99.90;;;;;;5094192;28;20024;-75
2022/08/13 02:25:50;;;;;;;19.83;13.82;;;16.40;99.90;;;;;;5093099;28;20051;-75
2022/08/13 02:28:21;;;;;;;20.85;14.73;;;16.40;99.90;;;;;;5094579;28;20474;-74
2022/08/13 02:30:48;;;;;;;22.10;15.00;;;16.40;99.90;;;;;;5094595;28;20085;-74
2022/08/13 02:33:14;;;;;;;22.50;15.82;;;16.40;99.90;;;;;;5092966;28;20397;-75
2022/08/13 02:35:41;;;;;;;20.73;14.18;;;16.40;99.90;;;;;;5094146;28;20013;-74
2022/08/13 02:38:07;;;;;;;22.00;15.02;;;16.40;99.90;;;;;;5094248;28;20489;-74
2022/08/13 02:43:17;;;;;;;19.50;14.27;;;16.40;99.90;;;;;;5094249;28;20042;-74
2022/08/13 02:45:46;;;;;;;20.38;14.98;;;16.50;99.90;;;;;;5094229;28;20107;-74
2022/08/13 02:48:12;;;;;;;22.02;15.13;;;16.50;99.90;;;;;;5092637;28;20080;-74
2022/08/13 02:50:42;;;;;;;19.73;14.63;;;16.50;99.90;;;;;;5094021;28;20054;-74
2022/08/13 02:53:09;;;;;;;25.00;16.13;;;16.50;99.90;;;;;;5094167;28;20397;-74
2022/08/13 02:55:36;;;;;;;23.55;16.60;;;16.50;99.90;;;;;;5094041;28;20026;-75
2022/08/13 02:58:04;;;;;;;23.23;16.92;;;16.50;99.90;;;;;;5092644;28;20085;-74
2022/08/13 03:00:30;;;;;;;25.38;16.58;;;16.50;99.90;;;;;;5093969;28;20027;-74
2022/08/13 03:02:57;;;;;;;26.83;18.00;;;16.60;99.90;;;;;;5092643;28;20024;-74
2022/08/13 03:05:23;;;;;;;26.10;18.65;;;16.60;99.90;;;;;;5092571;28;20134;-75
2022/08/13 03:07:49;;;;;;;28.30;19.00;;;16.60;99.90;;;;;;5093836;28;20489;-75
2022/08/13 03:10:18;;;;;;;31.52;20.58;;;16.60;99.90;;;;;;5093817;28;20028;-74
2022/08/13 03:12:51;;;;;;;32.60;21.23;;;16.60;99.90;;;;;;5092421;28;20111;-75
2022/08/13 03:15:20;;;;;;;31.50;20.77;;;16.60;99.90;;;;;;5093749;28;20039;-75
2022/08/13 03:17:46;;;;;;;30.40;19.35;;;16.60;99.90;;;;;;5093561;28;20028;-74
2022/08/13 03:20:16;;;;;;;28.38;18.40;;;16.70;99.90;;;;;;5093531;28;20031;-74
2022/08/13 03:22:53;;;;;;;30.17;19.95;;;16.70;99.90;;;;;;5093965;28;20430;-74
2022/08/13 03:25:21;;;;;;;29.65;19.48;;;16.70;99.90;;;;;;5093487;28;20024;-74
2022/08/13 03:27:48;;;;;;;31.20;19.95;;;16.70;99.90;;;;;;5093453;28;20031;-74
2022/08/13 03:30:16;;;;;;;29.95;18.52;;;16.70;99.90;;;;;;5092216;28;20020;-74
2022/08/13 03:32:45;;;;;;;33.17;20.45;;;16.70;99.90;;;;;;5093312;28;20024;-74
2022/08/13 03:35:22;;;;;;;33.63;19.80;;;16.60;99.90;;;;;;5093255;28;20031;-75
2022/08/13 03:37:54;;;;;;;33.15;21.55;;;16.60;99.90;;;;;;5093345;28;20036;-74
2022/08/13 03:40:22;;;;;;;31.33;18.98;;;16.60;99.90;;;;;;5093452;28;20046;-75
2022/08/13 03:42:51;;;;;;;36.17;20.48;;;16.60;99.90;;;;;;5091983;28;20525;-74
2022/08/13 03:45:18;;;;;;;38.17;20.15;;;16.50;99.90;;;;;;5093327;28;20420;-74
2022/08/13 03:47:45;;;;;;;39.47;22.35;;;16.50;99.90;;;;;;5091218;28;20504;-75
2022/08/13 03:50:12;;;;;;;43.80;23.40;;;16.50;99.90;;;;;;5092810;28;20050;-75
2022/08/13 03:52:38;;;;;;;44.85;23.27;;;16.50;99.90;;;;;;5093367;28;20016;-75
2022/08/13 03:55:11;;;;;;;62.20;25.27;;;16.60;99.90;;;;;;5092518;28;20020;-74
2022/08/13 03:57:40;;;;;;;41.70;23.77;;;16.60;99.90;;;;;;5089751;28;20512;-74
2022/08/13 04:00:11;;;;;;;45.50;24.35;;;16.60;99.90;;;;;;5091191;28;20047;-75
2022/08/13 04:02:41;;;;;;;45.17;23.02;;;16.60;99.90;;;;;;5089806;28;20140;-74
2022/08/13 04:05:17;;;;;;;51.45;27.60;;;16.60;99.90;;;;;;5091316;28;20017;-75
2022/08/13 04:07:50;;;;;;;44.58;24.40;;;16.50;99.90;;;;;;5089826;28;20016;-74
2022/08/13 04:10:16;;;;;;;49.95;24.70;;;16.50;99.90;;;;;;5090833;28;20062;-75
2022/08/13 04:12:43;;;;;;;55.80;25.73;;;16.50;99.90;;;;;;5093168;28;20048;-74
2022/08/13 04:15:09;;;;;;;47.55;25.95;;;16.60;99.90;;;;;;5093260;28;20024;-74
2022/08/13 04:17:36;;;;;;;46.38;25.08;;;16.60;99.90;;;;;;5092973;28;20028;-75
2022/08/13 04:20:06;;;;;;;47.42;25.17;;;16.60;99.90;;;;;;5093052;28;20061;-75
2022/08/13 04:22:33;;;;;;;50.40;22.92;;;16.60;99.90;;;;;;5092995;28;20020;-74
2022/08/13 04:24:59;;;;;;;49.78;26.58;;;16.50;99.90;;;;;;5093145;28;20065;-74
2022/08/13 04:27:25;;;;;;;50.55;26.17;;;16.50;99.90;;;;;;5092875;28;20024;-74
2022/08/13 04:29:55;;;;;;;51.78;26.00;;;16.50;99.90;;;;;;5093145;28;20021;-74
2022/08/13 04:32:23;;;;;;;56.72;26.95;;;16.50;99.90;;;;;;5092909;28;20389;-74
2022/08/13 04:34:48;;;;;;;49.17;26.88;;;16.50;99.90;;;;;;5091630;28;20016;-75
2022/08/13 04:37:14;;;;;;;52.10;26.02;;;16.50;99.90;;;;;;5091436;28;20035;-74
2022/08/13 04:39:39;;;;;;;58.08;27.48;;;16.50;99.90;;;;;;5091782;28;20089;-75
2022/08/13 04:42:07;;;;;;;55.40;27.35;;;16.50;99.90;;;;;;5092799;28;20029;-75
2022/08/13 04:44:33;;;;;;;53.17;25.98;;;16.50;99.90;;;;;;5092926;28;20024;-75
2022/08/13 04:46:59;;;;;;;58.63;28.92;;;16.60;99.90;;;;;;5093504;28;20036;-74
2022/08/13 04:49:25;;;;;;;52.83;28.30;;;16.60;99.90;;;;;;5094888;28;20048;-75
2022/08/13 04:51:50;;;;;;;49.70;26.38;;;16.60;99.90;;;;;;5096522;28;20024;-75
2022/08/13 04:54:16;;;;;;;48.78;26.17;;;16.70;99.90;;;;;;5096455;28;20024;-74
2022/08/13 04:56:42;;;;;;;53.42;26.25;;;16.70;99.90;;;;;;5095040;28;20497;-75
2022/08/13 04:59:08;;;;;;;49.80;26.13;;;16.70;99.90;;;;;;5094770;28;20069;-74
2022/08/13 05:01:34;;;;;;;45.75;24.48;;;16.70;99.90;;;;;;5096352;28;20020;-75
2022/08/13 05:03:59;;;;;;;49.70;26.67;;;16.70;99.90;;;;;;5096213;28;20020;-75
2022/08/13 05:06:26;;;;;;;55.30;28.15;;;16.70;99.90;;;;;;5096150;28;20016;-74
2022/08/13 05:08:53;;;;;;;53.50;27.52;;;16.70;99.90;;;;;;5096040;28;20073;-75
2022/08/13 05:11:19;;;;;;;56.55;27.30;;;16.80;99.90;;;;;;5094788;28;20107;-75
2022/08/13 05:13:45;;;;;;;48.45;25.27;;;16.80;99.90;;;;;;5096030;28;20016;-74
2022/08/13 05:16:16;;;;;;;53.10;28.75;;;16.80;99.90;;;;;;5096040;28;20024;-74
2022/08/13 05:18:45;;;;;;;56.97;28.67;;;16.80;99.90;;;;;;5095935;28;20028;-74
2022/08/13 05:21:12;;;;;;;56.13;29.63;;;16.80;99.90;;;;;;5095892;28;20020;-74
2022/08/13 05:23:40;;;;;;;48.30;26.80;;;16.90;99.90;;;;;;5095657;28;20023;-74
2022/08/13 05:26:07;;;;;;;51.58;28.00;;;16.90;99.90;;;;;;5094231;28;20019;-75
2022/08/13 05:28:34;;;;;;;49.08;26.52;;;16.90;99.90;;;;;;5094562;28;20108;-74
2022/08/13 05:31:01;;;;;;;53.22;26.13;;;16.90;99.90;;;;;;5094888;28;20108;-75
2022/08/13 05:33:29;;;;;;;43.85;24.52;;;16.90;99.90;;;;;;5095098;28;20020;-75
2022/08/13 05:35:58;;;;;;;46.65;25.33;;;16.90;99.90;;;;;;5093982;28;20077;-75
2022/08/13 05:38:25;;;;;;;48.38;25.45;;;16.90;99.90;;;;;;5094718;28;20024;-74
2022/08/13 05:40:52;;;;;;;44.05;24.85;;;16.90;99.90;;;;;;5094834;28;20051;-74
2022/08/13 05:43:21;;;;;;;45.50;26.60;;;16.90;99.90;;;;;;5091944;28;20059;-76
2022/08/13 05:45:58;;;;;;;42.25;23.88;;;16.90;99.90;;;;;;5094842;28;20550;-75
2022/08/13 05:48:29;;;;;;;41.42;24.13;;;17.00;99.90;;;;;;5094823;28;20047;-74
2022/08/13 05:51:00;;;;;;;41.13;24.10;;;17.00;99.90;;;;;;5093636;28;20103;-74
2022/08/13 05:53:27;;;;;;;41.67;22.50;;;17.00;99.90;;;;;;5077446;28;20505;-74
2022/08/13 05:55:54;;;;;;;43.95;22.38;;;17.00;99.90;;;;;;5095052;28;20030;-75
2022/08/13 05:58:21;;;;;;;39.13;22.13;;;17.00;99.90;;;;;;5093340;28;20115;-75
2022/08/13 06:03:32;;;;;;;32.70;19.77;;;17.00;99.90;;;;;;5092098;28;20067;-75
2022/08/13 06:06:10;;;;;;;39.22;22.00;;;17.10;99.90;;;;;;5093094;28;20048;-74
2022/08/13 06:08:40;;;;;;;34.67;19.85;;;17.10;99.90;;;;;;5092433;28;20448;-75
2022/08/13 06:11:08;;;;;;;28.45;19.25;;;17.10;99.90;;;;;;5094220;28;20366;-74
2022/08/13 06:13:38;;;;;;;31.55;19.05;;;17.10;99.90;;;;;;5093123;28;20028;-75
2022/08/13 06:16:06;;;;;;;27.70;17.40;;;17.10;99.90;;;;;;5094470;28;20032;-74
2022/08/13 06:18:33;;;;;;;25.88;16.58;;;17.10;99.90;;;;;;5094557;28;20036;-74
2022/08/13 06:21:05;;;;;;;20.75;14.57;;;17.20;99.90;;;;;;5094564;28;20485;-74
2022/08/13 06:23:32;;;;;;;23.65;15.27;;;17.20;99.90;;;;;;5093191;28;20016;-74
2022/08/13 06:25:59;;;;;;;20.15;13.75;;;17.20;99.90;;;;;;5090447;28;20113;-75
2022/08/13 06:28:31;;;;;;;20.90;13.90;;;17.20;99.90;;;;;;5081497;28;20043;-73
2022/08/13 06:31:00;;;;;;;20.42;13.68;;;17.30;99.90;;;;;;5081661;28;20035;-74
2022/08/13 06:33:26;;;;;;;18.35;12.20;;;17.40;99.90;;;;;;5086515;28;20020;-75
2022/08/13 06:36:00;;;;;;;18.02;13.13;;;17.40;99.90;;;;;;5091928;28;20389;-74
2022/08/13 06:38:27;;;;;;;15.35;12.23;;;17.50;99.90;;;;;;5073603;28;20039;-75
2022/08/13 06:40:54;;;;;;;14.00;10.77;;;17.60;99.90;;;;;;5068433;28;20020;-74
2022/08/13 06:43:21;;;;;;;12.98;10.38;;;17.60;99.90;;;;;;5071314;28;20070;-73
2022/08/13 06:45:48;;;;;;;11.27;8.57;;;17.70;99.90;;;;;;5071237;28;20036;-76
2022/08/13 06:48:14;;;;;;;10.98;9.27;;;17.90;99.90;;;;;;5075146;28;20044;-74
2022/08/13 06:50:40;;;;;;;9.77;8.57;;;17.90;99.90;;;;;;5089436;28;20020;-74
2022/08/13 06:53:08;;;;;;;10.02;8.00;;;18.00;99.90;;;;;;5074809;28;20500;-76
2022/08/13 06:55:36;;;;;;;10.23;7.28;;;18.00;99.90;;;;;;5071704;28;20013;-73
2022/08/13 06:58:04;;;;;;;10.10;7.13;;;18.10;99.90;;;;;;5077400;28;20398;-74
2022/08/13 07:00:31;;;;;;;9.85;7.32;;;18.10;99.90;;;;;;5073396;28;20025;-75
2022/08/13 07:02:59;;;;;;;9.48;7.78;;;18.10;99.90;;;;;;5073747;28;20020;-75
2022/08/13 07:05:35;;;;;;;11.43;7.57;;;18.10;99.90;;;;;;5073408;28;20440;-74
2022/08/13 07:08:04;;;;;;;10.40;7.05;;;18.10;99.90;;;;;;5079836;28;20587;-75
2022/08/13 07:10:31;;;;;;;11.68;8.25;;;18.10;99.90;;;;;;5076910;28;20029;-76
2022/08/13 07:13:00;;;;;;;10.20;7.65;;;18.10;99.90;;;;;;5071728;28;20490;-75
2022/08/13 07:15:29;;;;;;;9.90;7.10;;;18.20;99.90;;;;;;5072949;28;20056;-76
2022/08/13 07:17:56;;;;;;;9.65;7.53;;;18.20;99.90;;;;;;5072884;28;20156;-76
2022/08/13 07:20:22;;;;;;;10.30;7.40;;;18.20;99.90;;;;;;5072659;28;20024;-75
2022/08/13 07:22:48;;;;;;;12.43;8.18;;;18.10;99.90;;;;;;5072947;28;20024;-75
2022/08/13 07:25:14;;;;;;;12.30;8.10;;;18.20;99.90;;;;;;5072892;28;20021;-76
2022/08/13 07:27:41;;;;;;;12.27;9.18;;;18.20;99.90;;;;;;5081704;28;20025;-75
2022/08/13 07:30:08;;;;;;;11.13;8.05;;;18.20;99.90;;;;;;5072671;28;20024;-76
2022/08/13 07:32:38;;;;;;;11.25;9.23;;;18.20;99.90;;;;;;5072687;28;20154;-75
2022/08/13 07:35:08;;;;;;;13.70;9.10;;;18.20;99.90;;;;;;5075054;28;20029;-75
2022/08/13 07:37:39;;;;;;;9.82;8.45;;;18.10;99.90;;;;;;5078338;28;20044;-75
2022/08/13 07:40:08;;;;;;;10.57;8.75;;;18.10;99.90;;;;;;5079452;28;20567;-76
2022/08/13 07:42:40;;;;;;;12.80;10.00;;;18.20;99.90;;;;;;5092846;28;20028;-75
2022/08/13 07:45:10;;;;;;;13.32;9.45;;;18.20;99.90;;;;;;5092949;28;20019;-75
2022/08/13 07:47:39;;;;;;;12.02;10.00;;;18.20;99.90;;;;;;5092690;28;20024;-75
2022/08/13 07:50:10;;;;;;;10.80;8.50;;;18.30;99.90;;;;;;5090353;28;20023;-75
2022/08/13 07:52:38;;;;;;;10.40;8.77;;;18.30;99.90;;;;;;5076071;28;20472;-75
2022/08/13 07:55:05;;;;;;;14.52;9.05;;;18.30;99.90;;;;;;5075978;28;20024;-75
2022/08/13 07:57:32;;;;;;;10.20;7.88;;;18.40;99.90;;;;;;5072324;28;20493;-76
2022/08/13 07:59:58;;;;;;;12.13;9.20;;;18.40;99.90;;;;;;5088684;28;20048;-76
2022/08/13 08:02:25;;;;;;;12.07;10.10;;;18.50;99.90;;;;;;5088241;28;20540;-76
2022/08/13 08:04:57;;;;;;;13.80;10.05;;;18.60;99.90;;;;;;5078156;28;20020;-76
2022/08/13 08:07:26;;;;;;;15.43;10.73;;;18.70;99.90;;;;;;5069045;28;20024;-76
2022/08/13 08:09:54;;;;;;;14.07;11.27;;;18.70;99.90;;;;;;5068623;28;20035;-76
2022/08/13 08:12:35;;;;;;;13.85;10.55;;;18.70;99.90;;;;;;5071015;28;20021;-76
2022/08/13 08:15:08;;;;;;;15.32;11.25;;;18.80;99.90;;;;;;5072419;28;20066;-76
2022/08/13 08:17:34;;;;;;;13.60;10.50;;;18.80;99.90;;;;;;5072196;28;20036;-76
2022/08/13 08:20:00;;;;;;;14.52;11.45;;;18.70;99.90;;;;;;5072213;28;20028;-77
2022/08/13 08:22:27;;;;;;;13.60;11.10;;;18.70;99.90;;;;;;5072568;28;20020;-73
2022/08/13 08:24:53;;;;;;;13.30;10.77;;;18.70;99.90;;;;;;5074235;28;20028;-77
2022/08/13 08:27:23;;;;;;;14.43;11.02;;;18.60;99.90;;;;;;5085313;28;20081;-77
2022/08/13 08:29:49;;;;;;;14.82;11.48;;;18.60;99.90;;;;;;5095330;28;20032;-77
2022/08/13 08:32:16;;;;;;;18.15;13.35;;;18.60;99.90;;;;;;5095076;28;20024;-76
2022/08/13 08:34:50;;;;;;;17.85;12.52;;;18.70;99.90;;;;;;5094878;28;20016;-76
2022/08/13 08:42:56;;;;;;;21.90;14.90;;;18.70;99.90;;;;;;5083940;28;20081;-76
2022/08/13 08:45:24;;;;;;;16.67;13.48;;;18.70;99.90;;;;;;5093785;28;20023;-74
2022/08/13 08:47:52;;;;;;;16.50;12.65;;;18.70;99.90;;;;;;5094234;28;20028;-76
2022/08/13 08:50:20;;;;;;;18.02;13.00;;;18.70;99.90;;;;;;5095669;28;20051;-77
2022/08/13 08:55:37;;;;;;;18.38;13.75;;;18.70;99.90;;;;;;5096163;28;20042;-74
2022/08/13 08:58:05;;;;;;;20.15;14.15;;;18.80;99.90;;;;;;5095878;28;20036;-73
2022/08/13 09:00:33;;;;;;;16.95;12.60;;;18.90;99.90;;;;;;5091882;28;20382;-75
2022/08/13 09:02:59;;;;;;;15.35;12.98;;;19.10;99.90;;;;;;5079582;28;20024;-73
2022/08/13 09:05:25;;;;;;;16.27;12.80;;;19.20;99.90;;;;;;5074040;28;20107;-74
2022/08/13 09:07:52;;;;;;;18.33;12.23;;;19.30;99.90;;;;;;5074027;28;20028;-75
2022/08/13 09:10:21;;;;;;;15.40;12.45;;;19.50;99.90;;;;;;5078754;28;20107;-73
2022/08/13 09:12:49;;;;;;;13.63;10.95;;;19.70;99.90;;;;;;5094830;28;20043;-73
2022/08/13 09:15:21;;;;;;;13.15;10.75;;;19.90;99.90;;;;;;5095496;28;20017;-74
2022/08/13 09:17:52;;;;;;;13.57;10.77;;;19.90;99.90;;;;;;5091312;28;20429;-73
2022/08/13 09:20:25;;;;;;;15.98;11.60;;;20.00;99.90;;;;;;5074552;28;20535;-73
2022/08/13 09:23:04;;;;;;;14.32;11.32;;;20.30;99.90;;;;;;5074972;28;20025;-74
2022/08/13 09:25:31;;;;;;;14.93;11.80;;;20.50;99.90;;;;;;5084395;28;20397;-74
2022/08/13 09:27:57;;;;;;;17.33;12.23;;;20.70;99.90;;;;;;5085315;28;20107;-74
2022/08/13 09:30:23;;;;;;;13.23;11.00;;;20.90;99.90;;;;;;5072313;28;20024;-73
2022/08/13 09:32:56;;;;;;;13.55;10.20;;;21.20;99.90;;;;;;5087321;28;20024;-74
2022/08/13 09:35:22;;;;;;;;;;;21.60;99.90;;;;;;5081181;28;20023;-74
2022/08/13 09:37:49;;;;;;;15.10;10.57;;;21.70;99.90;;;;;;5093458;28;19916;-75
2022/08/13 09:40:17;;;;;;;15.25;10.63;;;21.80;99.90;;;;;;5094355;28;20023;-77
2022/08/13 09:42:54;;;;;;;12.65;10.05;;;21.80;99.90;;;;;;5094127;28;20020;-77
2022/08/13 09:45:19;;;;;;;14.45;10.77;;;21.60;99.90;;;;;;5095318;28;20024;-74
2022/08/13 09:47:45;;;;;;;12.25;10.82;;;21.70;99.90;;;;;;5094470;28;20469;-77
2022/08/13 09:50:11;;;;;;;13.05;10.90;;;21.80;99.90;;;;;;5088862;28;20518;-76
2022/08/13 09:52:37;;;;;;;13.80;11.57;;;21.80;99.90;;;;;;5086641;28;20482;-76
2022/08/13 09:55:04;;;;;;;12.95;10.77;;;21.90;99.90;;;;;;5087767;28;20020;-76
2022/08/13 09:57:30;;;;;;;16.45;11.23;;;21.90;99.90;;;;;;5093175;28;20524;-76
2022/08/13 09:59:56;;;;;;;13.60;11.40;;;21.80;99.90;;;;;;5093385;28;20020;-73
2022/08/13 10:02:22;;;;;;;12.35;10.32;;;21.70;99.90;;;;;;5094501;28;20031;-73
2022/08/13 10:04:50;;;;;;;15.95;10.80;;;21.60;99.90;;;;;;5093013;28;20082;-73
2022/08/13 10:07:15;;;;;;;13.13;10.55;;;21.50;99.90;;;;;;5083906;28;20107;-72
2022/08/13 10:09:41;;;;;;;13.05;10.88;;;21.30;99.90;;;;;;5094356;28;20637;-74
2022/08/13 10:12:09;;;;;;;14.35;11.48;;;21.40;99.90;;;;;;5094187;28;20028;-75
2022/08/13 10:14:35;;;;;;;13.32;11.27;;;21.50;99.90;;;;;;5093153;28;20023;-76
2022/08/13 10:17:01;;;;;;;14.80;10.60;;;21.50;99.90;;;;;;5094206;28;20122;-73
2022/08/13 10:19:27;;;;;;;12.82;11.00;;;21.70;99.90;;;;;;5094329;28;20024;-73
2022/08/13 10:21:53;;;;;;;13.18;11.32;;;21.80;99.90;;;;;;5094230;28;20035;-72
2022/08/13 10:24:19;;;;;;;13.98;11.70;;;21.80;99.90;;;;;;5094421;28;20027;-75
2022/08/13 10:26:44;;;;;;;16.98;11.63;;;21.60;99.90;;;;;;5094238;28;20477;-73
2022/08/13 10:29:11;;;;;;;14.48;10.85;;;21.70;99.90;;;;;;5093168;28;20108;-74
2022/08/13 10:31:37;;;;;;;15.13;11.95;;;21.80;99.90;;;;;;5094397;28;20020;-74
2022/08/13 10:34:04;;;;;;;15.40;11.20;;;22.00;99.90;;;;;;5094241;28;20028;-73
2022/08/13 10:36:31;;;;;;;14.27;11.48;;;22.30;99.90;;;;;;5094211;28;20386;-73
2022/08/13 10:38:57;;;;;;;18.08;11.45;;;22.30;99.90;;;;;;5093075;28;20024;-75
2022/08/13 10:41:24;;;;;;;14.95;13.20;;;22.30;99.90;;;;;;5094239;28;20473;-73
2022/08/13 10:43:51;;;;;;;13.23;11.40;;;22.10;99.90;;;;;;5093947;28;20056;-75
2022/08/13 10:46:17;;;;;;;17.33;13.27;;;22.10;99.90;;;;;;5093479;28;20543;-75
2022/08/13 10:48:44;;;;;;;17.42;13.30;;;22.10;99.90;;;;;;5086412;28;20397;-75
2022/08/13 10:51:10;;;;;;;14.93;12.20;;;22.20;99.90;;;;;;5092221;28;20107;-74
2022/08/13 10:53:55;;;;;;;14.07;12.25;;;22.30;99.90;;;;;;5093837;28;20023;-75
2022/08/13 10:56:22;;;;;;;12.90;11.60;;;22.20;99.90;;;;;;5092565;28;20027;-74
2022/08/13 10:58:48;;;;;;;15.10;12.32;;;21.80;99.90;;;;;;5092343;28;20055;-74
2022/08/13 11:01:15;;;;;;;16.20;12.43;;;21.80;99.90;;;;;;5092960;28;20432;-76
2022/08/13 11:03:44;;;;;;;20.73;13.07;;;21.70;99.90;;;;;;5093009;28;20063;-76
2022/08/13 11:06:11;;;;;;;14.98;11.70;;;21.60;99.90;;;;;;5099421;28;20613;-72
2022/08/13 11:08:39;;;;;;;15.98;12.32;;;21.60;99.90;;;;;;5111144;28;20020;-75
2022/08/13 11:11:08;;;;;;;13.95;12.25;;;21.70;99.90;;;;;;5112057;28;20027;-75
2022/08/13 11:13:36;;;;;;;14.75;13.18;;;21.80;99.90;;;;;;5113601;28;20020;-73
2022/08/13 11:16:06;;;;;;;16.65;12.85;;;21.80;99.90;;;;;;5113865;28;20026;-73
2022/08/13 11:18:32;;;;;;;20.30;15.05;;;21.80;99.90;;;;;;5113607;28;20035;-73
2022/08/13 11:21:07;;;;;;;18.58;14.52;;;21.80;99.90;;;;;;5113157;28;20027;-74
2022/08/13 11:23:34;;;;;;;15.55;13.68;;;22.00;99.90;;;;;;5113421;28;20027;-73
2022/08/13 11:26:00;;;;;;;15.75;13.80;;;22.00;99.90;;;;;;5113617;28;20020;-74
2022/08/13 11:28:25;;;;;;;18.45;13.43;;;22.00;99.90;;;;;;5093730;28;20024;-73
2022/08/13 11:30:56;;;;;;;17.02;14.05;;;22.10;99.90;;;;;;5091917;28;20024;-76
2022/08/13 11:33:24;;;;;;;18.80;15.35;;;22.30;99.90;;;;;;5091329;28;20382;-74
2022/08/13 11:35:52;;;;;;;16.00;13.48;;;22.40;99.90;;;;;;5091478;28;20027;-74
2022/08/13 11:38:20;;;;;;;16.75;13.32;;;22.60;99.90;;;;;;5092772;28;20040;-75
2022/08/13 11:40:51;;;;;;;16.30;13.75;;;22.60;99.90;;;;;;5092577;28;20024;-75
2022/08/13 11:43:16;;;;;;;16.27;14.15;;;22.50;99.90;;;;;;5093008;28;20042;-74
2022/08/13 11:45:42;;;;;;;15.77;13.25;;;22.40;99.90;;;;;;5092332;28;20024;-75
2022/08/13 11:48:08;;;;;;;18.08;12.80;;;22.60;99.90;;;;;;5092424;28;20098;-74
2022/08/13 11:50:34;;;;;;;13.00;11.68;;;22.70;99.90;;;;;;5092778;28;20051;-75
2022/08/13 11:53:00;;;;;;;14.07;12.57;;;22.90;99.90;;;;;;5092739;28;20048;-74
2022/08/13 11:55:26;;;;;;;12.68;11.38;;;23.20;99.90;;;;;;5092440;28;20469;-74
2022/08/13 11:58:03;;;;;;;16.25;12.10;;;23.30;99.90;;;;;;5096601;28;20093;-73
2022/08/13 12:00:29;;;;;;;12.57;11.27;;;23.40;99.90;;;;;;5096609;28;20099;-74
2022/08/13 12:02:54;;;;;;;12.90;11.65;;;23.70;99.90;;;;;;5096597;28;20454;-74
2022/08/13 12:05:20;;;;;;;13.55;11.57;;;23.70;99.90;;;;;;5096607;28;20019;-74
2022/08/13 12:07:46;;;;;;;13.65;11.13;;;23.80;99.90;;;;;;5096531;28;20028;-74
2022/08/13 12:10:12;;;;;;;15.68;11.27;;;23.70;99.90;;;;;;5095099;28;20055;-75
2022/08/13 12:12:38;;;;;;;11.73;10.52;;;23.70;99.90;;;;;;5096923;28;20044;-74
2022/08/13 12:15:05;;;;;;;12.80;11.52;;;23.50;99.90;;;;;;5096809;28;20513;-76
2022/08/13 12:17:31;;;;;;;11.55;10.35;;;23.50;99.90;;;;;;5096791;28;20032;-75
2022/08/13 12:19:56;;;;;;;13.27;11.10;;;23.50;99.90;;;;;;5096658;28;20478;-76
2022/08/13 12:22:22;;;;;;;15.38;11.30;;;23.50;99.90;;;;;;5096684;28;20053;-74
2022/08/13 12:24:48;;;;;;;13.07;11.38;;;23.50;99.90;;;;;;5095317;28;20020;-74
2022/08/13 12:27:13;;;;;;;12.52;11.05;;;23.50;99.90;;;;;;5095243;28;20020;-75
2022/08/13 12:29:39;;;;;;;12.70;11.40;;;23.50;99.90;;;;;;5096470;28;20091;-73
2022/08/13 12:32:05;;;;;;;12.55;11.25;;;23.50;99.90;;;;;;5096435;28;20032;-73
2022/08/13 12:34:31;;;;;;;12.15;10.95;;;23.50;99.90;;;;;;5094660;28;20028;-74
2022/08/13 12:36:56;;;;;;;13.43;11.13;;;23.50;99.90;;;;;;5095838;28;20040;-74
2022/08/13 12:39:22;;;;;;;15.00;9.57;;;23.60;99.90;;;;;;5095871;28;20087;-76
2022/08/13 12:41:48;;;;;;;13.13;9.57;;;23.60;99.90;;;;;;5095869;28;20117;-75
2022/08/13 12:44:14;;;;;;;11.55;9.95;;;23.60;99.90;;;;;;5094525;28;20016;-75
2022/08/13 12:46:39;;;;;;;12.15;9.65;;;23.60;99.90;;;;;;5094520;28;20500;-75
2022/08/13 12:49:07;;;;;;;10.93;9.52;;;23.70;99.90;;;;;;5094183;28;20040;-75
2022/08/13 12:51:33;;;;;;;13.10;10.20;;;23.30;99.90;;;;;;5090995;28;20019;-75
2022/08/13 12:53:58;;;;;;;10.38;9.38;;;23.30;99.90;;;;;;5085991;28;20588;-75